Time;durP1;ratioP1;P1;durP2;ratioP2;P2;SDS_P1;SDS_P2;PMS_P1;PMS_P2;Temp;Humidity;BMP_temperature;BMP_pressure;BME280_temperature;BME280_humidity;BME280_pressure;Samples;Min_cycle;Max_cycle;Signal;HPM_P1;HPM_P2
2022/04/17 00:01:55;;;;;;;243.17;230.97;;;;;;;12.51;62.19;94640.50;5026765;28;20239;-84
2022/04/17 00:04:21;;;;;;;211.07;199.20;;;;;;;12.82;63.02;94708.84;5020362;28;20651;-84
2022/04/17 00:06:46;;;;;;;134.33;127.43;;;;;;;12.74;63.74;94691.50;5007243;28;20199;-84
2022/04/17 00:09:12;;;;;;;94.43;89.40;;;;;;;12.55;63.62;94665.41;4987752;28;1226344;-85
2022/04/17 00:11:38;;;;;;;93.97;88.93;;;;;;;12.69;63.50;94687.94;5024131;28;20180;-84
2022/04/17 00:14:03;;;;;;;92.03;86.90;;;;;;;12.41;63.39;94639.22;5022770;28;20235;-84
2022/04/17 00:16:29;;;;;;;75.37;71.10;;;;;;;12.26;63.43;94601.91;5009286;28;20242;-84
2022/04/17 00:18:54;;;;;;;75.43;71.13;;;;;;;12.51;63.37;94651.88;5023744;28;20570;-86
2022/04/17 00:21:22;;;;;;;66.53;62.63;;;;;;;12.46;63.88;94641.16;4997295;28;20180;-86
2022/04/17 00:23:48;;;;;;;59.63;55.97;;;;;;;12.81;64.49;94702.75;4997568;28;20259;-86
2022/04/17 00:26:13;;;;;;;53.87;50.50;;;;;;;12.75;64.76;94689.66;5015475;28;20251;-86
2022/04/17 00:28:39;;;;;;;48.77;45.70;;;;;;;12.43;65.03;94637.16;4997441;28;20219;-85
2022/04/17 00:31:04;;;;;;;44.10;41.37;;;;;;;12.42;65.19;94632.91;4997243;28;20188;-86
2022/04/17 00:33:31;;;;;;;39.80;37.20;;;;;;;12.74;65.22;94686.22;5014923;28;20524;-86
2022/04/17 00:35:57;;;;;;;37.40;34.77;;;;;;;12.61;65.71;94660.03;5014800;28;20259;-86
2022/04/17 00:38:22;;;;;;;34.63;32.33;;;;;;;12.13;65.77;94586.25;4997054;28;20204;-86
2022/04/17 00:40:48;;;;;;;37.43;35.00;;;;;;;12.25;65.79;94623.25;4997054;28;20173;-86
2022/04/17 00:43:30;;;;;;;32.50;29.50;;;;;;;12.28;66.18;94649.19;4997038;28;20294;-86
2022/04/17 00:45:56;;;;;;;28.93;26.63;;;;;;;12.19;67.32;94674.28;5014759;28;20259;-86
2022/04/17 00:48:22;;;;;;;36.93;34.37;;;;;;;12.22;67.96;94677.25;5019739;28;20629;-86
2022/04/17 00:50:50;;;;;;;35.50;33.07;;;;;;;12.21;67.61;94680.94;5002960;28;20263;-86
2022/04/17 00:53:18;;;;;;;51.97;48.77;;;;;;;11.81;67.96;94614.75;5023647;28;20202;-85
2022/04/17 00:55:44;;;;;;;48.43;45.17;;;;;;;12.21;67.43;94670.38;5025745;28;20666;-86
2022/04/17 00:58:10;;;;;;;52.47;49.00;;;;;;;11.82;67.64;94602.34;5014492;28;20157;-86
2022/04/17 01:00:36;;;;;;;46.73;43.70;;;;;;;11.86;67.27;94595.59;4995967;28;20668;-86
2022/04/17 01:03:02;;;;;;;38.20;35.60;;;;;;;11.81;66.98;94587.56;5014228;28;20193;-87
2022/04/17 01:05:27;;;;;;;36.30;33.80;;;;;;;11.80;66.99;94599.13;5014451;28;20544;-88
2022/04/17 01:07:53;;;;;;;11.97;6.43;;;;;;;11.66;66.56;94566.84;5014410;28;20307;-87
2022/04/17 01:10:19;;;;;;;12.20;7.23;;;;;;;11.63;66.30;94573.38;4996461;28;20211;-87
2022/04/17 01:12:45;;;;;;;10.33;7.10;;;;;;;12.20;66.63;94668.75;4996337;28;20192;-86
2022/04/17 01:15:11;;;;;;;10.87;6.80;;;;;;;12.25;66.50;94663.63;5013854;28;20176;-87
2022/04/17 01:17:37;;;;;;;11.10;7.53;;;;;;;11.61;65.91;94570.16;4996330;28;20176;-86
2022/04/17 01:20:04;;;;;;;13.73;8.07;;;;;;;12.13;66.09;94662.78;4996400;28;20625;-86
2022/04/17 01:22:29;;;;;;;12.40;6.73;;;;;;;11.94;66.38;94621.66;5013403;28;20203;-87
2022/04/17 01:27:40;;;;;;;8.13;5.97;;;;;;;11.77;65.79;94604.84;5014586;28;20231;-86
2022/04/17 01:30:06;;;;;;;11.63;6.17;;;;;;;11.81;66.09;94612.09;5013616;28;20639;-84
2022/04/17 01:32:32;;;;;;;9.37;6.07;;;;;;;11.66;66.01;94590.59;4999903;28;20176;-85
2022/04/17 01:34:57;;;;;;;8.93;5.60;;;;;;;11.91;66.22;94632.66;5019717;28;20176;-85
2022/04/17 01:37:22;;;;;;;7.83;5.67;;;;;;;11.73;65.93;94610.56;5003929;28;20609;-87
2022/04/17 01:39:48;;;;;;;8.70;6.30;;;;;;;11.63;66.03;94588.38;5001877;28;20271;-86
2022/04/17 01:42:13;;;;;;;12.57;6.50;;;;;;;12.05;66.22;94650.72;5013711;28;20192;-86
2022/04/17 01:44:39;;;;;;;7.57;5.93;;;;;;;11.96;66.08;94641.50;4995984;28;20180;-87
2022/04/17 01:47:05;;;;;;;9.70;6.43;;;;;;;11.63;65.82;94577.84;4995746;28;20215;-86
2022/04/17 01:49:31;;;;;;;9.63;6.80;;;;;;;11.92;65.95;94650.91;4995822;28;20635;-86
2022/04/17 01:51:57;;;;;;;8.43;6.00;;;;;;;11.37;66.67;94576.34;5013333;28;20169;-87
2022/04/17 01:54:25;;;;;;;7.17;5.67;;;;;;;11.79;67.17;94637.06;4995625;28;20195;-86
2022/04/17 01:56:51;;;;;;;7.47;5.97;;;;;;;11.77;67.49;94631.22;5013258;28;20612;-86
2022/04/17 01:59:18;;;;;;;8.97;6.53;;;;;;;11.90;68.00;94636.31;4995605;28;20218;-86
2022/04/17 02:01:43;;;;;;;9.90;6.73;;;;;;;11.90;68.11;94644.25;5013263;28;20232;-85
2022/04/17 02:04:10;;;;;;;8.70;6.40;;;;;;;11.95;67.91;94644.34;5013079;28;20211;-85
2022/04/17 02:06:39;;;;;;;16.90;9.37;;;;;;;11.87;67.91;94642.03;5013362;28;20163;-86
2022/04/17 02:09:07;;;;;;;9.93;6.13;;;;;;;11.95;67.84;94649.63;5012943;28;20235;-86
2022/04/17 02:11:33;;;;;;;7.23;5.90;;;;;;;11.64;68.01;94600.53;4994613;28;20230;-87
2022/04/17 02:13:59;;;;;;;9.13;6.33;;;;;;;11.79;68.10;94621.25;4995557;28;20172;-86
2022/04/17 02:16:25;;;;;;;10.57;6.90;;;;;;;11.67;67.86;94587.72;5002526;28;20230;-86
2022/04/17 02:18:52;;;;;;;11.13;7.63;;;;;;;11.86;67.72;94612.22;5006484;28;20226;-86
2022/04/17 02:21:19;;;;;;;14.43;7.37;;;;;;;11.89;68.03;94624.97;5026270;28;20173;-86
2022/04/17 02:23:45;;;;;;;12.23;8.10;;;;;;;11.44;67.94;94550.72;5010282;28;20583;-85
2022/04/17 02:26:13;;;;;;;14.27;8.37;;;;;;;11.96;68.29;94615.13;5033306;28;20168;-86
2022/04/17 02:28:40;;;;;;;12.77;8.33;;;;;;;11.95;67.61;94616.16;5032391;28;20261;-86
2022/04/17 02:31:07;;;;;;;9.27;6.00;;;;;;;11.75;68.61;94605.09;5014667;28;20713;-86
2022/04/17 02:33:33;;;;;;;13.30;8.77;;;;;;;11.23;68.55;94528.31;5032464;28;20282;-86
2022/04/17 02:35:59;;;;;;;21.73;11.83;;;;;;;11.36;68.72;94543.13;5032356;28;20183;-85
2022/04/17 02:38:25;;;;;;;24.50;13.00;;;;;;;11.66;69.04;94616.94;5032720;28;20213;-86
2022/04/17 02:40:53;;;;;;;25.27;14.60;;;;;;;11.21;69.49;94542.72;5032844;28;20242;-86
2022/04/17 02:43:18;;;;;;;21.67;14.43;;;;;;;11.64;69.56;94611.88;5032479;28;20246;-87
2022/04/17 02:45:44;;;;;;;27.37;15.33;;;;;;;11.32;69.90;94555.94;5014693;28;20660;-86
2022/04/17 02:48:10;;;;;;;24.30;14.30;;;;;;;11.47;69.81;94568.72;5014452;28;20170;-86
2022/04/17 02:50:35;;;;;;;21.07;13.33;;;;;;;11.39;69.98;94569.03;5032026;28;20203;-86
2022/04/17 02:53:01;;;;;;;23.13;15.37;;;;;;;10.98;69.98;94504.69;5014287;28;20417;-86
2022/04/17 02:55:27;;;;;;;18.23;12.60;;;;;;;11.24;69.59;94550.19;5032331;28;20640;-86
2022/04/17 02:57:54;;;;;;;17.07;10.40;;;;;;;10.77;69.56;94470.94;5014484;28;20184;-86
2022/04/17 03:00:21;;;;;;;16.57;9.57;;;;;;;11.18;69.33;94533.41;5014410;28;20213;-86
2022/04/17 03:05:36;;;;;;;9.20;6.43;;;;;;;11.40;69.99;94591.72;5032441;28;20179;-86
2022/04/17 03:08:09;;;;;;;9.73;7.37;;;;;;;11.52;70.18;94613.66;5032587;28;20614;-85
2022/04/17 03:10:40;;;;;;;11.10;7.20;;;;;;;11.50;70.17;94614.94;5015270;28;20198;-86
2022/04/17 03:13:07;;;;;;;9.90;6.37;;;;;;;11.25;70.38;94584.19;5032892;28;20164;-85
2022/04/17 03:15:34;;;;;;;8.67;5.83;;;;;;;11.34;71.12;94603.13;5014308;28;20210;-86
2022/04/17 03:18:00;;;;;;;15.67;8.70;;;;;;;11.06;70.76;94547.56;5014360;28;20176;-86
2022/04/17 03:20:26;;;;;;;20.60;12.37;;;;;;;11.41;70.83;94595.97;5032270;28;20568;-86
2022/04/17 03:22:52;;;;;;;19.60;12.70;;;;;;;10.90;70.96;94528.69;5016046;28;20199;-86
2022/04/17 03:25:18;;;;;;;16.87;9.17;;;;;;;10.94;71.48;94564.09;5017891;28;20654;-86
2022/04/17 03:27:46;;;;;;;12.73;8.13;;;;;;;11.09;72.45;94600.59;5035727;28;20577;-86
2022/04/17 03:30:13;;;;;;;10.80;7.13;;;;;;;11.15;72.57;94604.19;5017807;28;20310;-86
2022/04/17 03:32:38;;;;;;;12.23;6.87;;;;;;;10.84;71.99;94542.75;5035485;28;20255;-86
2022/04/17 03:35:04;;;;;;;19.07;10.97;;;;;;;11.22;72.27;94610.19;5035631;28;20266;-87
2022/04/17 03:37:29;;;;;;;11.17;7.33;;;;;;;10.70;72.45;94525.50;5035821;28;20263;-86
2022/04/17 03:39:55;;;;;;;11.27;6.83;;;;;;;10.91;72.33;94558.47;5035736;28;20259;-86
2022/04/17 03:42:21;;;;;;;9.50;6.63;;;;;;;10.56;72.26;94505.59;5017783;28;20192;-87
2022/04/17 03:44:47;;;;;;;10.77;6.63;;;;;;;10.73;72.50;94538.19;5017587;28;20178;-87
2022/04/17 03:47:13;;;;;;;12.47;7.07;;;;;;;10.97;72.86;94578.66;5035769;28;20172;-86
2022/04/17 03:49:38;;;;;;;9.60;6.00;;;;;;;10.59;72.90;94513.06;5035525;28;20175;-86
2022/04/17 03:52:04;;;;;;;9.60;6.33;;;;;;;10.82;72.61;94557.13;5035158;28;20649;-86
2022/04/17 03:54:30;;;;;;;7.50;5.73;;;;;;;10.80;72.88;94551.31;5035614;28;20509;-86
2022/04/17 03:56:55;;;;;;;7.97;6.03;;;;;;;10.96;73.52;94606.03;5035224;28;20170;-85
2022/04/17 03:59:21;;;;;;;7.53;5.50;;;;;;;10.64;73.47;94544.78;5017372;28;20172;-86
2022/04/17 04:01:46;;;;;;;8.47;6.23;;;;;;;10.96;73.77;94617.38;5034940;28;20684;-85
2022/04/17 04:04:12;;;;;;;6.90;5.37;;;;;;;10.88;73.98;94622.13;5017272;28;20167;-86
2022/04/17 04:06:38;;;;;;;8.30;5.90;;;;;;;10.84;74.64;94616.47;5034999;28;20156;-86
2022/04/17 04:09:03;;;;;;;7.50;5.97;;;;;;;10.77;74.85;94599.13;5017083;28;20740;-85
2022/04/17 04:11:29;;;;;;;8.83;6.37;;;;;;;10.80;74.78;94594.25;5035226;28;20218;-86
2022/04/17 04:13:55;;;;;;;8.70;5.87;;;;;;;10.89;76.05;94624.53;5017152;28;20225;-87
2022/04/17 04:16:20;;;;;;;8.50;6.23;;;;;;;10.57;76.96;94565.09;5035405;28;20164;-86
2022/04/17 04:18:46;;;;;;;10.50;6.67;;;;;;;10.52;77.75;94549.97;5016956;28;20171;-86
2022/04/17 04:21:12;;;;;;;8.97;6.00;;;;;;;11.00;77.45;94614.28;5034729;28;20168;-86
2022/04/17 04:23:38;;;;;;;7.87;6.00;;;;;;;10.46;77.20;94537.69;5017060;28;20239;-87
2022/04/17 04:26:04;;;;;;;8.07;5.10;;;;;;;10.64;77.52;94576.34;5034541;28;20283;-86
2022/04/17 04:28:33;;;;;;;7.57;5.30;;;;;;;10.46;77.87;94555.31;5009228;28;20207;-86
2022/04/17 04:31:10;;;;;;;8.03;5.80;;;;;;;10.80;78.08;94620.56;5022063;28;20179;-86
2022/04/17 04:33:40;;;;;;;8.00;6.00;;;;;;;10.35;78.31;94550.75;5024359;28;20168;-86
2022/04/17 04:36:10;;;;;;;8.63;6.17;;;;;;;10.83;78.64;94619.31;5012265;28;20235;-87
2022/04/17 04:38:36;;;;;;;22.10;6.50;;;;;;;10.86;78.69;94622.34;5034794;28;20159;-86
2022/04/17 04:41:02;;;;;;;8.07;4.80;;;;;;;10.49;78.16;94563.56;5034485;28;20171;-87
2022/04/17 04:43:28;;;;;;;10.50;6.67;;;;;;;10.89;78.69;94626.38;5016497;28;20688;-87
2022/04/17 04:46:06;;;;;;;9.60;6.17;;;;;;;10.66;78.89;94581.41;5033818;28;20240;-86
2022/04/17 04:51:22;;;;;;;13.47;9.03;;;;;;;10.30;80.61;94532.97;5021139;28;20183;-86
2022/04/17 04:53:49;;;;;;;11.60;8.33;;;;;;;10.92;80.58;94621.44;5004691;28;20164;-86
2022/04/17 04:56:16;;;;;;;9.67;7.00;;;;;;;10.63;80.71;94571.34;5019166;28;20196;-86
2022/04/17 04:58:42;;;;;;;9.33;5.53;;;;;;;10.89;81.04;94598.19;5024154;28;20594;-83
2022/04/17 05:01:10;;;;;;;9.90;5.80;;;;;;;11.01;80.45;94615.88;5023761;28;20176;-83
2022/04/17 05:03:35;;;;;;;9.43;6.30;;;;;;;10.81;80.51;94587.16;5024861;28;20206;-83
2022/04/17 05:06:01;;;;;;;9.60;5.30;;;;;;;10.62;80.34;94560.00;5033919;28;20172;-83
2022/04/17 05:08:27;;;;;;;7.57;5.77;;;;;;;10.76;80.79;94586.97;5033815;28;20219;-84
2022/04/17 05:10:53;;;;;;;9.50;6.63;;;;;;;10.45;81.25;94549.25;5028081;28;20182;-82
2022/04/17 05:13:19;;;;;;;10.93;7.07;;;;;;;10.66;81.27;94576.94;5021145;28;20579;-82
2022/04/17 05:15:44;;;;;;;11.57;8.00;;;;;;;10.87;81.36;94609.97;5021722;28;20181;-82
2022/04/17 05:18:10;;;;;;;14.43;11.07;;;;;;;10.81;81.65;94601.09;5002685;28;20172;-82
2022/04/17 05:20:35;;;;;;;16.67;12.47;;;;;;;10.26;82.10;94512.59;5014568;28;20229;-82
2022/04/17 05:23:15;;;;;;;15.80;11.43;;;;;;;10.83;82.52;94608.78;5033489;28;20179;-82
2022/04/17 05:25:47;;;;;;;12.73;9.30;;;;;;;10.86;82.63;94609.16;5033646;28;20213;-84
2022/04/17 05:28:14;;;;;;;11.87;8.40;;;;;;;10.91;82.50;94608.50;5015701;28;20254;-85
2022/04/17 05:30:40;;;;;;;10.63;7.87;;;;;;;10.91;82.50;94605.84;5015673;28;20207;-84
2022/04/17 05:33:06;;;;;;;12.83;8.00;;;;;;;10.92;82.55;94605.66;5033445;28;20172;-84
2022/04/17 05:35:32;;;;;;;10.63;7.73;;;;;;;10.94;82.60;94605.44;5033860;28;20187;-84
2022/04/17 05:37:57;;;;;;;9.67;7.03;;;;;;;11.00;82.39;94609.00;5033296;28;20167;-84
2022/04/17 05:40:22;;;;;;;11.73;7.80;;;;;;;10.76;82.20;94579.09;5015389;28;20230;-85
2022/04/17 05:42:48;;;;;;;12.40;8.43;;;;;;;10.93;82.78;94609.09;5033015;28;20294;-84
2022/04/17 05:45:13;;;;;;;11.37;7.53;;;;;;;10.94;83.60;94606.25;5032979;28;20179;-85
2022/04/17 05:47:39;;;;;;;12.57;8.10;;;;;;;10.63;82.84;94555.53;5015187;28;20187;-85
2022/04/17 05:50:05;;;;;;;10.77;7.40;;;;;;;10.55;83.12;94539.00;5033266;28;20180;-85
2022/04/17 05:52:31;;;;;;;16.80;8.80;;;;;;;10.65;83.10;94553.47;5033295;28;20190;-85
2022/04/17 05:54:57;;;;;;;18.67;10.20;;;;;;;10.97;82.88;94594.47;5033122;28;20203;-85
2022/04/17 05:57:22;;;;;;;22.17;11.80;;;;;;;10.60;83.45;94530.47;5005856;28;20180;-85
2022/04/17 05:59:48;;;;;;;17.57;10.13;;;;;;;10.63;83.67;94542.38;5021202;28;20178;-86
2022/04/17 06:02:15;;;;;;;21.00;11.30;;;;;;;11.11;84.08;94603.81;5005809;28;20203;-85
2022/04/17 06:04:44;;;;;;;12.67;8.23;;;;;;;11.04;83.19;94607.56;5023084;28;20557;-84
2022/04/17 06:07:09;;;;;;;12.63;8.60;;;;;;;11.06;82.49;94601.06;5025810;28;20259;-83
2022/04/17 06:09:35;;;;;;;15.87;8.70;;;;;;;11.06;82.50;94605.53;5022993;28;20247;-83
2022/04/17 06:12:01;;;;;;;11.07;7.80;;;;;;;10.79;82.06;94553.13;5013200;28;20200;-83
2022/04/17 06:14:27;;;;;;;16.13;8.20;;;;;;;10.70;82.15;94538.66;4994944;28;20680;-84
2022/04/17 06:16:52;;;;;;;12.73;7.77;;;;;;;10.64;82.80;94525.56;5012655;28;20207;-85
2022/04/17 06:19:17;;;;;;;13.40;9.60;;;;;;;11.07;82.58;94592.09;5003489;28;20164;-85
2022/04/17 06:21:43;;;;;;;10.73;7.93;;;;;;;11.09;81.98;94597.16;5030048;28;20559;-85
2022/04/17 06:24:08;;;;;;;13.20;9.63;;;;;;;10.79;82.02;94547.06;5014751;28;20182;-86
2022/04/17 06:26:35;;;;;;;15.87;9.50;;;;;;;11.10;82.56;94596.94;5032457;28;20199;-85
2022/04/17 06:29:07;;;;;;;17.60;12.00;;;;;;;10.67;82.60;94530.38;5030678;28;20172;-86
2022/04/17 06:31:33;;;;;;;19.60;11.03;;;;;;;10.77;82.59;94547.28;5003645;28;20176;-87
2022/04/17 06:33:58;;;;;;;17.30;10.27;;;;;;;10.80;82.41;94567.91;5004315;28;20176;-86
2022/04/17 06:36:24;;;;;;;21.77;12.97;;;;;;;10.57;82.62;94517.72;5021552;28;20182;-87
2022/04/17 06:38:49;;;;;;;24.43;14.10;;;;;;;10.48;83.14;94517.22;5019515;28;20176;-89
2022/04/17 06:41:15;;;;;;;21.87;11.03;;;;;;;10.45;82.85;94512.41;5005849;28;20180;-89
2022/04/17 06:43:40;;;;;;;14.77;9.23;;;;;;;10.50;82.94;94520.44;5020663;28;20287;-89
2022/04/17 06:46:05;;;;;;;12.47;8.50;;;;;;;10.53;82.90;94527.91;5022149;28;20575;-89
2022/04/17 06:48:31;;;;;;;12.33;8.27;;;;;;;10.43;83.06;94513.63;5007624;28;20684;-89
2022/04/17 06:50:57;;;;;;;15.47;8.70;;;;;;;10.52;83.27;94530.75;4995618;28;20219;-86
2022/04/17 06:53:23;;;;;;;19.63;10.03;;;;;;;11.00;83.66;94595.84;5025669;28;20175;-88
2022/04/17 06:55:49;;;;;;;17.63;10.23;;;;;;;11.01;83.84;94608.78;5005756;28;20709;-88
2022/04/17 06:58:18;;;;;;;14.33;10.57;;;;;;;10.63;83.46;94537.13;5003991;28;20183;-90
2022/04/17 07:00:44;;;;;;;13.40;9.73;;;;;;;10.57;82.84;94517.72;5021651;28;20183;-88
2022/04/17 07:03:09;;;;;;;17.33;10.60;;;;;;;11.08;83.00;94580.53;5019164;28;20227;-86
2022/04/17 07:05:35;;;;;;;16.87;9.87;;;;;;;10.84;83.74;94560.38;5003146;28;20210;-87
2022/04/17 07:08:03;;;;;;;20.23;13.20;;;;;;;11.02;83.86;94593.78;5005848;28;20230;-87
2022/04/17 07:10:30;;;;;;;19.67;12.73;;;;;;;11.08;83.88;94601.63;5004389;28;20234;-86
2022/04/17 07:12:55;;;;;;;18.13;12.33;;;;;;;11.00;83.33;94582.66;4999409;28;20179;-85
2022/04/17 07:15:21;;;;;;;14.80;10.17;;;;;;;10.87;83.48;94560.75;4994444;28;20172;-85
2022/04/17 07:17:47;;;;;;;16.03;10.83;;;;;;;10.90;82.94;94560.28;5013219;28;20540;-85
2022/04/17 07:20:13;;;;;;;16.70;10.30;;;;;;;10.79;82.88;94547.88;5019059;28;20667;-87
2022/04/17 07:22:41;;;;;;;14.50;8.97;;;;;;;11.13;82.80;94606.25;5021135;28;20204;-84
2022/04/17 07:25:07;;;;;;;14.30;9.43;;;;;;;10.96;82.79;94577.88;5019492;28;20191;-83
2022/04/17 07:27:43;;;;;;;12.83;8.43;;;;;;;10.74;82.80;94545.06;5021286;28;20207;-83
2022/04/17 07:30:16;;;;;;;13.80;8.20;;;;;;;11.12;83.71;94602.81;5006525;28;20175;-83
2022/04/17 07:32:43;;;;;;;9.57;6.33;;;;;;;10.68;83.46;94526.72;5022182;28;20173;-83
2022/04/17 07:35:10;;;;;;;10.47;7.60;;;;;;;10.94;83.41;94565.94;5012627;28;20243;-83
2022/04/17 07:37:36;;;;;;;14.20;9.53;;;;;;;11.22;83.35;94604.94;5012097;28;20195;-84
2022/04/17 07:40:26;;;;;;;17.70;16.10;;;;;;;11.24;84.16;94602.88;5016345;28;20174;-84
2022/04/17 07:42:59;;;;;;;25.83;23.53;;;;;;;10.55;83.72;94485.59;5022182;28;20215;-88
2022/04/17 07:45:26;;;;;;;58.13;54.67;;;;;;;10.88;83.93;94536.03;4998795;28;20192;-88
2022/04/17 07:47:52;;;;;;;11.77;9.03;;;;;;;11.02;83.05;94543.75;5024789;28;20670;-90
2022/04/17 07:50:23;;;;;;;4.40;3.60;;;;;;;11.03;82.04;94534.84;5021781;28;20172;-89
2022/04/17 07:52:50;;;;;;;4.20;3.50;;;;;;;11.45;81.60;94605.03;5004783;28;20180;-87
2022/04/17 07:55:16;;;;;;;4.17;3.43;;;;;;;10.96;82.25;94512.03;5004142;28;20183;-86
2022/04/17 08:00:32;;;;;;;5.40;4.60;;;;;;;11.10;81.95;94512.66;5022972;28;20596;-90
2022/04/17 08:03:20;;;;;;;7.53;5.33;;;;;;;11.50;81.88;94560.34;5030212;28;20223;-86
2022/04/17 08:05:49;;;;;;;6.60;5.07;;;;;;;11.68;81.57;94584.03;5009848;28;20188;-87
2022/04/17 08:08:14;;;;;;;5.20;3.87;;;;;;;11.73;81.61;94589.47;5022375;28;20236;-83
2022/04/17 08:10:41;;;;;;;4.00;3.60;;;;;;;11.63;81.18;94547.00;5027672;28;20200;-81
2022/04/17 08:13:06;;;;;;;15.03;8.47;;;;;;;11.98;80.71;94586.69;5029415;28;20250;-84
2022/04/17 08:15:33;;;;;;;11.33;7.13;;;;;;;12.06;79.33;94581.09;5010177;28;20179;-88
2022/04/17 08:17:58;;;;;;;6.50;3.83;;;;;;;11.58;78.95;94507.34;5026595;28;20188;-88
2022/04/17 08:20:24;;;;;;;3.83;3.43;;;;;;;12.13;79.41;94588.91;5005813;28;20263;-82
2022/04/17 08:22:49;;;;;;;3.37;3.00;;;;;;;12.24;78.50;94580.19;5007539;28;20197;-84
2022/04/17 08:25:15;;;;;;;3.13;2.83;;;;;;;11.76;77.22;94498.59;5010490;28;20184;-86
2022/04/17 08:27:47;;;;;;;3.10;2.73;;;;;;;12.20;77.28;94568.47;5031425;28;20195;-83
2022/04/17 08:30:13;;;;;;;3.80;2.83;;;;;;;12.35;77.36;94583.91;5026153;28;20195;-84
2022/04/17 08:32:40;;;;;;;2.93;2.67;;;;;;;12.14;76.97;94550.94;5024267;28;20203;-84
2022/04/17 08:35:06;;;;;;;4.50;2.97;;;;;;;11.63;78.52;94486.38;5023167;28;20164;-83
2022/04/17 08:37:32;;;;;;;2.67;2.47;;;;;;;11.40;77.68;94465.22;5024640;28;20189;-84
2022/04/17 08:39:57;;;;;;;3.87;3.10;;;;;;;11.73;76.71;94536.72;5026080;28;20172;-83
2022/04/17 08:42:25;;;;;;;3.73;3.10;;;;;;;11.96;78.90;94572.13;5023317;28;20196;-83
2022/04/17 08:44:51;;;;;;;4.47;3.33;;;;;;;12.02;78.99;94582.56;5020089;28;20164;-83
2022/04/17 08:47:17;;;;;;;4.17;3.53;;;;;;;11.60;79.06;94526.34;5021352;28;20185;-83
2022/04/17 08:49:43;;;;;;;6.40;4.27;;;;;;;11.93;78.82;94585.78;5018480;28;20168;-84
2022/04/17 08:52:15;;;;;;;9.93;4.83;;;;;;;11.83;79.08;94582.88;5026878;28;20175;-84
2022/04/17 08:54:42;;;;;;;6.17;4.17;;;;;;;11.67;79.31;94557.91;5023985;28;20226;-83
2022/04/17 08:57:07;;;;;;;6.67;3.73;;;;;;;11.76;79.17;94588.25;5020445;28;20172;-82
2022/04/17 08:59:33;;;;;;;5.00;3.30;;;;;;;11.40;79.85;94519.78;5028735;28;20558;-87
2022/04/17 09:02:07;;;;;;;5.73;3.50;;;;;;;11.61;78.99;94546.41;5010265;28;20273;-87
2022/04/17 09:04:33;;;;;;;5.77;3.13;;;;;;;11.79;80.15;94563.25;5003809;28;20171;-87
2022/04/17 09:07:00;;;;;;;3.80;2.70;;;;;;;11.36;79.78;94485.16;5025958;28;20176;-83
2022/04/17 09:09:26;;;;;;;3.27;2.70;;;;;;;11.56;78.42;94525.22;5023702;28;20216;-84
2022/04/17 09:11:57;;;;;;;2.40;2.20;;;;;;;11.75;77.14;94552.34;5026366;28;20294;-83
2022/04/17 09:14:22;;;;;;;3.07;2.70;;;;;;;11.82;77.86;94574.16;5026159;28;20177;-83
2022/04/17 09:16:51;;;;;;;2.60;2.33;;;;;;;11.56;77.81;94527.84;5005924;28;20175;-84
2022/04/17 09:19:18;;;;;;;3.10;2.37;;;;;;;11.56;77.24;94525.22;5005654;28;20666;-84
2022/04/17 09:21:44;;;;;;;2.70;2.47;;;;;;;11.48;77.45;94501.00;5028914;28;20562;-84
2022/04/17 09:24:12;;;;;;;4.10;2.63;;;;;;;11.86;76.76;94564.75;5029716;28;20180;-81
2022/04/17 09:26:50;;;;;;;3.47;2.93;;;;;;;11.70;78.21;94536.34;5021805;28;20253;-83
2022/04/17 09:29:19;;;;;;;5.20;2.83;;;;;;;11.81;79.67;94538.25;5027417;28;20199;-84
2022/04/17 09:31:45;;;;;;;2.97;2.60;;;;;;;11.68;79.01;94502.31;5009617;28;20172;-84
2022/04/17 09:34:11;;;;;;;4.30;2.53;;;;;;;11.56;79.02;94472.50;5024722;28;20176;-83
2022/04/17 09:36:37;;;;;;;3.63;2.60;;;;;;;12.08;77.32;94536.00;5024537;28;20233;-83
2022/04/17 09:39:19;;;;;;;2.97;2.40;;;;;;;12.17;77.84;94533.84;5009608;28;20184;-83
2022/04/17 09:41:56;;;;;;;3.33;3.03;;;;;;;12.14;77.71;94513.19;5005524;28;20180;-85
2022/04/17 09:44:46;;;;;;;4.90;3.17;;;;;;;12.31;77.24;94527.31;5021800;28;20257;-82
2022/04/17 09:47:23;;;;;;;3.93;3.40;;;;;;;12.30;77.97;94510.66;5023511;28;20241;-82
2022/04/17 09:50:02;;;;;;;4.93;3.10;;;;;;;12.37;77.04;94516.63;5020715;28;20183;-82
2022/04/17 09:52:33;;;;;;;4.93;3.50;;;;;;;12.21;76.94;94488.28;5023929;28;20240;-82
2022/04/17 09:55:00;;;;;;;3.70;3.13;;;;;;;12.50;77.35;94517.44;5004267;28;20234;-83
2022/04/17 09:57:28;;;;;;;3.37;2.77;;;;;;;12.35;75.62;94528.47;5025802;28;20230;-82
2022/04/17 09:59:56;;;;;;;3.47;2.83;;;;;;;12.04;74.31;94484.72;5027488;28;20281;-83
2022/04/17 10:02:24;;;;;;;3.17;2.87;;;;;;;12.17;76.28;94512.75;5003488;28;20326;-83
2022/04/17 10:04:50;;;;;;;4.77;2.77;;;;;;;11.75;77.57;94446.06;5027760;28;20172;-82
2022/04/17 10:07:18;;;;;;;3.40;2.80;;;;;;;11.89;77.94;94466.72;5024993;28;20267;-82
2022/04/17 10:09:46;;;;;;;5.53;2.97;;;;;;;12.12;76.34;94515.25;5028413;28;20601;-82
2022/04/17 10:12:14;;;;;;;3.67;2.63;;;;;;;12.02;76.16;94498.13;5025864;28;20196;-81
2022/04/17 10:14:40;;;;;;;3.20;2.83;;;;;;;11.80;77.84;94467.28;5026795;28;20176;-82
2022/04/17 10:17:08;;;;;;;20.20;11.73;;;;;;;12.00;79.34;94504.69;5021678;28;20177;-84
2022/04/17 10:19:35;;;;;;;17.23;13.33;;;;;;;11.40;78.96;94438.88;5023057;28;20182;-83
2022/04/17 10:22:03;;;;;;;10.00;6.97;;;;;;;11.12;78.89;94415.78;5021877;28;20243;-83
2022/04/17 10:24:29;;;;;;;11.70;8.23;;;;;;;11.41;80.07;94473.94;5028354;28;20663;-86
2022/04/17 10:26:55;;;;;;;12.50;8.33;;;;;;;11.51;80.18;94500.53;5025034;28;20676;-83
2022/04/17 10:29:23;;;;;;;12.63;7.03;;;;;;;11.40;79.81;94496.84;5018797;28;20199;-83
2022/04/17 10:32:22;;;;;;;19.47;14.03;;;;;;;11.19;79.38;94502.59;5019263;28;20188;-82
2022/04/17 10:35:27;;;;;;;15.40;11.10;;;;;;;10.90;80.44;94502.34;5022922;28;20291;-81
2022/04/17 10:38:11;;;;;;;18.00;13.70;;;;;;;10.86;81.67;94511.75;5003286;28;20194;-88
2022/04/17 10:40:37;;;;;;;13.57;9.17;;;;;;;10.79;81.90;94503.13;5020745;28;21018;-82
2022/04/17 10:43:05;;;;;;;10.13;6.67;;;;;;;10.74;81.49;94497.69;5021703;28;20699;-82
2022/04/17 10:45:32;;;;;;;11.40;7.67;;;;;;;10.79;81.95;94482.06;5003775;28;20184;-82
2022/04/17 10:48:09;;;;;;;12.50;8.23;;;;;;;10.82;82.23;94486.06;5023503;28;20941;-82
2022/04/17 10:50:44;;;;;;;23.53;13.37;;;;;;;10.95;82.17;94486.72;5025341;28;20270;-81
2022/04/17 10:53:29;;;;;;;18.00;10.70;;;;;;;10.66;82.28;94444.53;5032146;28;20195;-81
2022/04/17 10:56:09;;;;;;;8.77;7.77;;;;;;;11.03;80.86;94497.97;5031786;28;20186;-81
2022/04/17 10:58:34;;;;;;;10.50;7.60;;;;;;;11.00;80.61;94488.66;5031649;28;20666;-81
2022/04/17 11:00:59;;;;;;;13.00;8.37;;;;;;;10.84;80.39;94457.69;5008623;28;20255;-81
2022/04/17 11:03:26;;;;;;;11.23;7.30;;;;;;;10.75;80.73;94464.28;5023396;28;20196;-81
2022/04/17 11:06:12;;;;;;;16.20;11.17;;;;;;;10.62;81.25;94433.66;5006314;28;20673;-82
2022/04/17 11:08:57;;;;;;;11.33;8.17;;;;;;;10.84;80.90;94482.19;5023862;28;20217;-81
2022/04/17 11:11:32;;;;;;;11.50;9.60;;;;;;;10.87;81.38;94484.38;5023120;28;20168;-82
2022/04/17 11:14:19;;;;;;;11.83;8.43;;;;;;;10.83;80.90;94477.94;5020823;28;20670;-83
2022/04/17 11:16:59;;;;;;;11.47;7.97;;;;;;;10.71;80.68;94473.66;5021150;28;20182;-85
2022/04/17 11:19:31;;;;;;;11.40;8.27;;;;;;;10.62;81.28;94473.16;5011147;28;20669;-84
2022/04/17 11:21:59;;;;;;;10.50;7.87;;;;;;;10.55;81.49;94467.16;5006842;28;20180;-84
2022/04/17 11:24:27;;;;;;;12.00;7.53;;;;;;;10.18;81.03;94438.22;5027978;28;20179;-85
2022/04/17 11:26:52;;;;;;;11.77;8.27;;;;;;;10.37;81.96;94483.75;5015025;28;20183;-84
2022/04/17 11:29:47;;;;;;;11.63;8.17;;;;;;;10.23;81.82;94487.50;5016151;28;20188;-84
2022/04/17 11:32:16;;;;;;;9.57;7.00;;;;;;;10.21;81.89;94490.34;5013123;28;20184;-85
2022/04/17 11:34:43;;;;;;;7.27;5.60;;;;;;;10.00;81.35;94461.81;4992628;28;20218;-85
2022/04/17 11:37:09;;;;;;;8.60;5.53;;;;;;;9.99;81.97;94470.72;5011237;28;20192;-85
2022/04/17 11:39:36;;;;;;;7.93;6.03;;;;;;;10.16;82.18;94486.75;4998524;28;20242;-85
2022/04/17 11:42:03;;;;;;;16.30;9.67;;;;;;;10.17;82.53;94491.00;5022372;28;20670;-83